Time;durP1;ratioP1;P1;durP2;ratioP2;P2;SDS_P1;SDS_P2;PMS_P1;PMS_P2;Temp;Humidity;BMP_temperature;BMP_pressure;BME280_temperature;BME280_humidity;BME280_pressure;Samples;Min_cycle;Max_cycle;Signal;HPM_P1;HPM_P2
2022/07/05 00:00:46;;;;;;;1.00;0.75;;;18.50;60.80;;;;;;5067637;28;20025;-63
2022/07/05 00:03:12;;;;;;;1.40;0.60;;;18.50;61.00;;;;;;5070310;28;20031;-63
2022/07/05 00:05:38;;;;;;;0.60;0.60;;;18.40;61.00;;;;;;5069121;28;20115;-63
2022/07/05 00:08:05;;;;;;;0.77;0.57;;;18.40;61.20;;;;;;5067748;28;20026;-63
2022/07/05 00:10:32;;;;;;;0.30;0.30;;;18.30;61.20;;;;;;5067721;28;20051;-63
2022/07/05 00:12:57;;;;;;;0.40;0.40;;;18.30;61.40;;;;;;5068090;28;20167;-63
2022/07/05 00:15:23;;;;;;;0.65;0.65;;;18.20;61.40;;;;;;5072389;28;20107;-63
2022/07/05 00:17:49;;;;;;;0.75;0.75;;;18.20;61.50;;;;;;5067996;28;20029;-63
2022/07/05 00:20:15;;;;;;;0.30;0.30;;;18.20;61.70;;;;;;5067142;28;20395;-63
2022/07/05 00:22:41;;;;;;;0.65;0.60;;;18.10;61.70;;;;;;5067494;28;20028;-63
2022/07/05 00:25:07;;;;;;;0.40;0.40;;;18.10;61.80;;;;;;5069438;28;20487;-68
2022/07/05 00:27:33;;;;;;;0.55;0.55;;;18.10;61.90;;;;;;5068498;28;20040;-68
2022/07/05 00:29:58;;;;;;;0.55;0.55;;;18.00;61.90;;;;;;5067347;28;20041;-68
2022/07/05 00:32:24;;;;;;;0.50;0.50;;;18.00;62.00;;;;;;5069966;28;20029;-68
2022/07/05 00:34:50;;;;;;;1.05;0.60;;;17.90;62.10;;;;;;5082487;28;20041;-68
2022/07/05 00:37:15;;;;;;;0.68;0.40;;;17.90;62.80;;;;;;5065443;28;20024;-67
2022/07/05 00:39:41;;;;;;;1.65;0.70;;;17.90;62.40;;;;;;5067842;28;20025;-68
2022/07/05 00:42:07;;;;;;;0.47;0.47;;;17.90;62.60;;;;;;5067254;28;20040;-68
2022/07/05 00:44:35;;;;;;;1.95;0.40;;;17.80;62.80;;;;;;5067978;28;20080;-68
2022/07/05 00:47:02;;;;;;;1.45;0.60;;;17.80;62.90;;;;;;5067239;28;20471;-68
2022/07/05 00:49:28;;;;;;;0.70;0.70;;;17.80;63.00;;;;;;5067836;28;20033;-68
2022/07/05 00:51:54;;;;;;;1.65;0.80;;;17.70;63.20;;;;;;5064939;28;20029;-68
2022/07/05 00:54:20;;;;;;;0.50;0.40;;;17.70;63.40;;;;;;5066348;28;20028;-68
2022/07/05 00:56:46;;;;;;;3.65;0.75;;;17.70;63.50;;;;;;5067107;28;20067;-68
2022/07/05 00:59:12;;;;;;;0.38;0.38;;;17.60;63.60;;;;;;5067271;28;20090;-68
2022/07/05 01:01:38;;;;;;;1.08;0.52;;;17.60;63.70;;;;;;5082921;28;20521;-68
2022/07/05 01:04:04;;;;;;;0.50;0.50;;;17.60;63.80;;;;;;5079672;28;20387;-68
2022/07/05 01:06:29;;;;;;;2.08;0.82;;;17.50;63.90;;;;;;5065185;28;20062;-68
2022/07/05 01:08:55;;;;;;;0.50;0.40;;;17.50;64.00;;;;;;5052548;28;20028;-68
2022/07/05 01:11:21;;;;;;;1.33;1.23;;;17.50;64.10;;;;;;5070532;28;20601;-68
2022/07/05 01:13:47;;;;;;;0.50;0.50;;;17.40;64.20;;;;;;5070967;28;20494;-68
2022/07/05 01:16:13;;;;;;;0.40;0.38;;;17.40;64.20;;;;;;5052574;28;20036;-68
2022/07/05 01:18:39;;;;;;;0.82;0.50;;;17.40;64.30;;;;;;5071209;28;20079;-68
2022/07/05 01:21:05;;;;;;;0.88;0.75;;;17.30;64.30;;;;;;5069472;28;20074;-67
2022/07/05 01:23:32;;;;;;;0.57;0.57;;;17.30;64.40;;;;;;5074418;28;20080;-63
2022/07/05 01:26:01;;;;;;;1.27;0.90;;;17.30;65.30;;;;;;5076752;28;20508;-63
2022/07/05 01:28:27;;;;;;;2.70;0.90;;;17.20;64.90;;;;;;5070557;28;20020;-63
2022/07/05 01:30:53;;;;;;;0.40;0.40;;;17.20;65.00;;;;;;5078026;28;20478;-63
2022/07/05 01:33:25;;;;;;;1.75;0.68;;;17.20;64.90;;;;;;5070577;28;20040;-63
2022/07/05 01:35:51;;;;;;;;;;;17.20;65.00;;;;;;5070037;28;20572;-63
2022/07/05 01:38:17;;;;;;;0.70;0.70;;;17.10;65.10;;;;;;5070445;28;19916;-68
2022/07/05 01:40:43;;;;;;;2.58;0.95;;;17.00;65.20;;;;;;5068982;28;20056;-68
2022/07/05 01:43:08;;;;;;;1.35;0.60;;;17.10;65.20;;;;;;5050365;28;20122;-68
2022/07/05 01:45:41;;;;;;;0.40;0.40;;;17.00;65.30;;;;;;5069012;28;20070;-63
2022/07/05 01:48:15;;;;;;;0.60;0.55;;;17.00;65.40;;;;;;5070043;28;20043;-68
2022/07/05 01:50:45;;;;;;;1.90;1.02;;;17.00;65.40;;;;;;5069916;28;20099;-68
2022/07/05 01:53:17;;;;;;;0.55;0.55;;;17.00;65.50;;;;;;5070207;28;21360;-68
2022/07/05 01:55:43;;;;;;;0.60;0.60;;;16.90;65.50;;;;;;5068239;28;20052;-67
2022/07/05 01:58:10;;;;;;;0.70;0.65;;;16.90;65.50;;;;;;5067455;28;20122;-68
2022/07/05 02:00:47;;;;;;;0.65;0.65;;;16.90;65.60;;;;;;5069906;28;20040;-68
2022/07/05 02:03:14;;;;;;;0.63;0.60;;;16.90;65.70;;;;;;5070100;28;20432;-68
2022/07/05 02:05:41;;;;;;;1.33;0.80;;;16.80;65.90;;;;;;5069619;28;20125;-63
2022/07/05 02:08:07;;;;;;;1.70;0.98;;;16.80;66.00;;;;;;5054113;28;20029;-63
2022/07/05 02:10:38;;;;;;;0.50;0.43;;;16.80;66.10;;;;;;5069828;28;20033;-63
2022/07/05 02:13:05;;;;;;;1.13;0.70;;;16.70;66.10;;;;;;5069748;28;20166;-63
2022/07/05 02:15:33;;;;;;;1.02;0.85;;;16.70;66.10;;;;;;5068329;28;20026;-64
2022/07/05 02:17:59;;;;;;;1.00;0.77;;;16.70;66.20;;;;;;5069805;28;20115;-63
2022/07/05 02:20:25;;;;;;;0.70;0.70;;;16.60;66.30;;;;;;5069220;28;20028;-63
2022/07/05 02:22:50;;;;;;;1.17;0.77;;;16.60;66.40;;;;;;5068132;28;20032;-68
2022/07/05 02:25:16;;;;;;;1.27;0.82;;;16.60;66.50;;;;;;5068366;28;20103;-68
2022/07/05 02:27:42;;;;;;;1.50;0.68;;;16.60;66.50;;;;;;5068511;28;20437;-68
2022/07/05 02:30:08;;;;;;;1.15;0.75;;;16.60;66.60;;;;;;5069274;28;20089;-63
2022/07/05 02:32:33;;;;;;;0.60;0.60;;;16.50;66.50;;;;;;5080744;28;20093;-63
2022/07/05 02:34:59;;;;;;;1.23;0.70;;;16.50;66.60;;;;;;5071011;28;20070;-63
2022/07/05 02:37:25;;;;;;;0.60;0.60;;;16.50;66.70;;;;;;5068949;28;20505;-63
2022/07/05 02:39:51;;;;;;;0.75;0.70;;;16.50;66.70;;;;;;5069227;28;20036;-68
2022/07/05 02:42:17;;;;;;;1.08;0.73;;;16.50;66.90;;;;;;5069055;28;20029;-68
2022/07/05 02:44:42;;;;;;;1.55;0.70;;;16.40;67.00;;;;;;5069576;28;20037;-63
2022/07/05 02:47:08;;;;;;;1.42;0.70;;;16.50;67.10;;;;;;5067976;28;20044;-64
2022/07/05 02:49:33;;;;;;;0.77;0.60;;;16.50;67.20;;;;;;5080638;28;20095;-68
2022/07/05 02:51:59;;;;;;;0.70;0.70;;;16.50;67.10;;;;;;5068261;28;20032;-63
2022/07/05 02:54:25;;;;;;;1.95;0.90;;;16.50;67.20;;;;;;5069893;28;20095;-63
2022/07/05 02:56:50;;;;;;;0.82;0.60;;;16.50;67.50;;;;;;5069660;28;20040;-63
2022/07/05 02:59:16;;;;;;;0.60;0.60;;;16.50;67.70;;;;;;5078704;28;20079;-63
2022/07/05 03:01:42;;;;;;;0.73;0.50;;;16.60;67.70;;;;;;5068524;28;20028;-63
2022/07/05 03:04:09;;;;;;;0.70;0.70;;;16.60;67.80;;;;;;5065647;28;20021;-63
2022/07/05 03:06:35;;;;;;;1.55;0.60;;;16.60;67.80;;;;;;5067755;28;20457;-63
2022/07/05 03:09:01;;;;;;;0.73;0.50;;;16.70;68.00;;;;;;5081150;28;20036;-63
2022/07/05 03:11:27;;;;;;;2.42;1.13;;;16.70;68.00;;;;;;5077202;28;20035;-63
2022/07/05 03:13:52;;;;;;;0.40;0.40;;;16.70;68.10;;;;;;5068761;28;20536;-63
2022/07/05 03:16:18;;;;;;;1.13;0.80;;;16.70;68.10;;;;;;5068639;28;20028;-63
2022/07/05 03:18:44;;;;;;;2.90;1.17;;;16.70;68.20;;;;;;5068944;28;20033;-63
2022/07/05 03:21:09;;;;;;;0.63;0.50;;;16.80;68.30;;;;;;5067035;28;20077;-63
2022/07/05 03:23:35;;;;;;;3.05;0.80;;;16.80;68.30;;;;;;5068882;28;20067;-67
2022/07/05 03:26:01;;;;;;;0.65;0.63;;;16.80;68.30;;;;;;5068344;28;20024;-69
2022/07/05 03:28:26;;;;;;;0.98;0.60;;;16.90;68.50;;;;;;5069899;28;20035;-68
2022/07/05 03:30:52;;;;;;;0.77;0.77;;;16.90;68.40;;;;;;5077102;28;20470;-68
2022/07/05 03:33:18;;;;;;;0.75;0.60;;;16.90;68.50;;;;;;5068540;28;20063;-68
2022/07/05 03:35:43;;;;;;;2.05;0.98;;;17.00;68.50;;;;;;5066398;28;20025;-68
2022/07/05 03:38:09;;;;;;;1.05;0.70;;;17.00;68.40;;;;;;5067936;28;20090;-68
2022/07/05 03:40:35;;;;;;;1.75;1.08;;;17.00;68.50;;;;;;5065624;28;20497;-68
2022/07/05 03:43:00;;;;;;;0.75;0.75;;;17.10;68.60;;;;;;5065890;28;20407;-68
2022/07/05 03:45:26;;;;;;;0.63;0.63;;;17.10;68.70;;;;;;5067001;28;20029;-62
2022/07/05 03:47:52;;;;;;;0.70;0.70;;;17.20;68.60;;;;;;5066688;28;20036;-63
2022/07/05 03:50:17;;;;;;;0.55;0.55;;;17.20;68.60;;;;;;5066538;28;20073;-63
2022/07/05 03:52:43;;;;;;;0.82;0.70;;;17.20;68.60;;;;;;5066536;28;20150;-63
2022/07/05 03:55:09;;;;;;;0.70;0.70;;;17.20;68.60;;;;;;5068891;28;20044;-63
2022/07/05 03:57:34;;;;;;;0.80;0.80;;;17.30;68.50;;;;;;5065424;28;20387;-63
2022/07/05 04:00:00;;;;;;;1.08;1.00;;;17.30;68.60;;;;;;5066843;28;20067;-63
2022/07/05 04:02:26;;;;;;;0.77;0.77;;;17.30;68.60;;;;;;5068418;28;20041;-68
2022/07/05 04:04:52;;;;;;;1.33;1.17;;;17.40;68.80;;;;;;5068225;28;20033;-68
2022/07/05 04:07:18;;;;;;;0.70;0.70;;;17.40;68.70;;;;;;5066809;28;20028;-68
2022/07/05 04:09:43;;;;;;;1.35;1.02;;;17.40;68.80;;;;;;5066668;28;20440;-69
2022/07/05 04:12:09;;;;;;;1.38;0.90;;;17.40;68.80;;;;;;5067917;28;20054;-68
2022/07/05 04:14:35;;;;;;;1.73;0.70;;;17.50;68.80;;;;;;5068448;28;20032;-69
2022/07/05 04:17:01;;;;;;;0.80;0.80;;;17.50;68.90;;;;;;5067856;28;20052;-64
2022/07/05 04:19:26;;;;;;;2.65;1.10;;;17.50;69.10;;;;;;5066745;28;20045;-63
2022/07/05 04:21:52;;;;;;;0.98;0.82;;;17.60;69.10;;;;;;5080802;28;20020;-63
2022/07/05 04:24:18;;;;;;;0.73;0.73;;;17.50;69.00;;;;;;5079004;28;20028;-63
2022/07/05 04:26:43;;;;;;;0.70;0.70;;;17.60;69.00;;;;;;5068182;28;20032;-63
2022/07/05 04:29:09;;;;;;;0.82;0.60;;;17.60;69.00;;;;;;5067764;28;20033;-69
2022/07/05 04:31:35;;;;;;;0.45;0.45;;;17.60;68.90;;;;;;5066244;28;20036;-69
2022/07/05 04:34:01;;;;;;;1.55;0.95;;;17.70;68.90;;;;;;5072292;28;20044;-69
2022/07/05 04:36:27;;;;;;;1.02;0.93;;;17.70;69.10;;;;;;5066795;28;20039;-69
2022/07/05 04:38:53;;;;;;;1.23;0.75;;;17.70;69.10;;;;;;5066534;28;20037;-68
2022/07/05 04:41:18;;;;;;;0.57;0.57;;;17.80;69.20;;;;;;5071292;28;20042;-68
2022/07/05 04:43:44;;;;;;;0.90;0.88;;;17.80;69.30;;;;;;5073961;28;20032;-68
2022/07/05 04:46:10;;;;;;;0.85;0.85;;;17.80;69.40;;;;;;5071207;28;20044;-69
2022/07/05 04:48:35;;;;;;;4.30;1.17;;;17.90;69.40;;;;;;5070818;28;20060;-69
2022/07/05 04:51:01;;;;;;;0.60;0.60;;;17.90;69.30;;;;;;5068997;28;20062;-68
2022/07/05 04:53:27;;;;;;;1.75;0.95;;;18.00;69.30;;;;;;5075550;28;20028;-68
2022/07/05 04:55:52;;;;;;;1.02;0.93;;;18.00;69.30;;;;;;5072154;28;20039;-68
2022/07/05 04:58:18;;;;;;;0.98;0.82;;;18.10;69.30;;;;;;5069759;28;20048;-63
2022/07/05 05:00:44;;;;;;;1.42;0.75;;;18.10;69.30;;;;;;5070887;28;20123;-63
2022/07/05 05:03:09;;;;;;;0.90;0.90;;;18.20;69.30;;;;;;5068060;28;20052;-64
2022/07/05 05:05:35;;;;;;;1.15;0.80;;;18.20;69.20;;;;;;5069432;28;20060;-64
2022/07/05 05:08:01;;;;;;;1.63;1.25;;;18.30;69.30;;;;;;5070753;28;20032;-63
2022/07/05 05:10:27;;;;;;;0.63;0.63;;;18.30;69.30;;;;;;5069265;28;20119;-64
2022/07/05 05:12:52;;;;;;;1.05;0.70;;;18.30;69.20;;;;;;5070978;28;20032;-63
2022/07/05 05:15:18;;;;;;;2.42;1.38;;;18.30;69.30;;;;;;5072393;28;20069;-63
2022/07/05 05:17:44;;;;;;;0.63;0.63;;;18.40;69.20;;;;;;5070082;28;20032;-63
2022/07/05 05:20:15;;;;;;;0.80;0.70;;;18.50;69.30;;;;;;5069639;28;20052;-62
2022/07/05 05:22:41;;;;;;;1.13;0.80;;;18.60;69.10;;;;;;5068154;28;20470;-63
2022/07/05 05:25:08;;;;;;;0.77;0.75;;;18.60;69.10;;;;;;5068768;28;20047;-63
2022/07/05 05:27:34;;;;;;;1.42;1.10;;;18.60;69.10;;;;;;5068986;28;20398;-63
2022/07/05 05:30:00;;;;;;;0.85;0.85;;;18.70;69.20;;;;;;5069622;28;20028;-69
2022/07/05 05:32:25;;;;;;;1.52;1.20;;;18.70;69.10;;;;;;5067616;28;20060;-69
2022/07/05 05:34:51;;;;;;;1.98;1.55;;;18.80;69.00;;;;;;5070864;28;20074;-69
2022/07/05 05:37:17;;;;;;;1.42;1.20;;;18.90;68.90;;;;;;5068222;28;20077;-69
2022/07/05 05:39:42;;;;;;;1.85;1.25;;;18.90;68.80;;;;;;5069524;28;20032;-68
2022/07/05 05:42:08;;;;;;;3.80;2.15;;;19.00;68.80;;;;;;5069811;28;20029;-69
2022/07/05 05:44:34;;;;;;;4.25;1.70;;;19.00;68.50;;;;;;5070329;28;20025;-68
2022/07/05 05:46:59;;;;;;;5.00;1.63;;;19.00;68.50;;;;;;5068177;28;20043;-68
2022/07/05 05:49:25;;;;;;;4.72;1.58;;;19.00;68.50;;;;;;5070240;28;20040;-63
2022/07/05 05:51:51;;;;;;;2.72;1.15;;;19.10;68.60;;;;;;5066147;28;20037;-63
2022/07/05 05:54:16;;;;;;;1.98;1.58;;;19.20;68.60;;;;;;5065962;28;20167;-63
2022/07/05 05:56:42;;;;;;;2.85;1.77;;;19.30;68.30;;;;;;5066914;28;20060;-63
2022/07/05 05:59:08;;;;;;;1.20;1.10;;;19.30;67.90;;;;;;5064032;28;20044;-63
2022/07/05 06:01:34;;;;;;;2.22;1.52;;;19.20;67.80;;;;;;5064544;28;20075;-63
2022/07/05 06:03:59;;;;;;;6.57;2.20;;;19.40;67.80;;;;;;5064704;28;20251;-63
2022/07/05 06:06:25;;;;;;;2.05;1.70;;;19.40;67.50;;;;;;5066581;28;20035;-63
2022/07/05 06:08:51;;;;;;;1.65;1.50;;;19.40;67.50;;;;;;5069474;28;20032;-64
2022/07/05 06:11:16;;;;;;;2.22;1.67;;;19.50;67.30;;;;;;5067499;28;20029;-63
2022/07/05 06:13:43;;;;;;;2.15;1.95;;;19.60;67.00;;;;;;5068477;28;20120;-63
2022/07/05 06:16:09;;;;;;;2.17;1.85;;;19.60;66.60;;;;;;5067556;28;20119;-64
2022/07/05 06:18:35;;;;;;;1.67;1.27;;;19.60;66.40;;;;;;5066092;28;20041;-63
2022/07/05 06:21:01;;;;;;;1.35;1.23;;;19.60;66.40;;;;;;5066692;28;20020;-63
2022/07/05 06:23:26;;;;;;;2.25;1.60;;;19.60;66.20;;;;;;5065748;28;20029;-63
2022/07/05 06:25:52;;;;;;;3.40;1.35;;;19.60;66.10;;;;;;5067090;28;20032;-63
2022/07/05 06:28:18;;;;;;;1.60;1.45;;;19.70;66.00;;;;;;5066885;28;20036;-63
2022/07/05 06:30:43;;;;;;;2.55;1.80;;;19.70;66.40;;;;;;5064146;28;20048;-63
2022/07/05 06:33:09;;;;;;;1.38;1.27;;;19.70;65.70;;;;;;5065550;28;20032;-63
2022/07/05 06:35:36;;;;;;;1.52;1.08;;;19.90;65.60;;;;;;5065065;28;20052;-63
2022/07/05 06:38:07;;;;;;;1.25;1.15;;;20.00;65.50;;;;;;5064684;28;20052;-63
2022/07/05 06:40:34;;;;;;;2.67;1.75;;;20.20;65.30;;;;;;5065761;28;20399;-63
2022/07/05 06:43:02;;;;;;;1.88;1.27;;;20.20;65.70;;;;;;5064208;28;20657;-64
2022/07/05 06:45:28;;;;;;;2.70;1.80;;;20.30;64.90;;;;;;5050482;28;20507;-64
2022/07/05 06:48:12;;;;;;;2.22;1.77;;;20.20;64.60;;;;;;5067481;28;20028;-64
2022/07/05 06:50:40;;;;;;;2.25;1.80;;;20.10;64.70;;;;;;5066916;28;20040;-63
2022/07/05 06:53:07;;;;;;;1.85;1.70;;;20.10;64.80;;;;;;5054309;28;20561;-64
2022/07/05 06:55:33;;;;;;;1.42;1.33;;;20.10;64.90;;;;;;5069564;28;20395;-62
2022/07/05 06:58:00;;;;;;;2.25;1.33;;;20.10;64.90;;;;;;5061049;28;20048;-62
2022/07/05 07:00:26;;;;;;;2.05;1.70;;;20.20;64.70;;;;;;5054245;28;20036;-62
2022/07/05 07:02:52;;;;;;;2.97;2.20;;;20.20;64.40;;;;;;5060957;28;20101;-62
2022/07/05 07:05:18;;;;;;;2.95;1.25;;;20.40;64.10;;;;;;5059006;28;20035;-62
2022/07/05 07:10:42;;;;;;;1.30;1.17;;;20.50;63.90;;;;;;5033321;28;20029;-68
2022/07/05 07:13:08;;;;;;;5.70;1.35;;;20.60;63.30;;;;;;5062772;28;20032;-68
2022/07/05 07:15:34;;;;;;;0.93;0.93;;;20.60;62.80;;;;;;5057011;28;20043;-68
2022/07/05 07:18:00;;;;;;;2.53;1.38;;;20.70;62.90;;;;;;5068047;28;20020;-69
2022/07/05 07:20:26;;;;;;;2.42;1.83;;;20.80;62.70;;;;;;5067796;28;20458;-69
2022/07/05 07:22:52;;;;;;;1.40;1.30;;;20.90;62.40;;;;;;5067114;28;20471;-68
2022/07/05 07:25:20;;;;;;;1.23;1.08;;;20.90;61.80;;;;;;5066632;28;20309;-69
2022/07/05 07:27:49;;;;;;;2.25;1.60;;;20.90;61.40;;;;;;5054933;28;20419;-68
2022/07/05 07:30:16;;;;;;;3.00;1.80;;;20.90;61.30;;;;;;5063193;28;20027;-69
2022/07/05 07:32:42;;;;;;;1.15;0.88;;;21.00;61.00;;;;;;5062716;28;20028;-68
2022/07/05 07:35:09;;;;;;;1.10;1.00;;;21.00;61.00;;;;;;5064067;28;20028;-69
2022/07/05 07:37:35;;;;;;;1.27;0.93;;;21.10;60.20;;;;;;5062306;28;20121;-69
2022/07/05 07:40:02;;;;;;;1.10;0.80;;;21.20;60.00;;;;;;5066597;28;20008;-69
2022/07/05 07:42:28;;;;;;;1.40;1.30;;;21.30;59.90;;;;;;5068609;28;20043;-68
2022/07/05 07:44:54;;;;;;;1.27;1.05;;;21.30;59.50;;;;;;5066934;28;20033;-63
2022/07/05 07:47:20;;;;;;;3.83;1.67;;;21.50;59.30;;;;;;5062162;28;20112;-62
2022/07/05 07:49:45;;;;;;;1.67;1.08;;;21.60;57.80;;;;;;5065744;28;20155;-62
2022/07/05 07:52:11;;;;;;;0.85;0.80;;;21.70;58.20;;;;;;5066301;28;20107;-62
2022/07/05 07:54:37;;;;;;;0.90;0.63;;;21.80;58.00;;;;;;5068187;28;20028;-62
2022/07/05 07:57:04;;;;;;;1.42;1.15;;;21.90;58.10;;;;;;5067612;28;20029;-62
2022/07/05 07:59:34;;;;;;;2.03;1.05;;;21.90;57.50;;;;;;5065626;28;20182;-62
2022/07/05 08:02:00;;;;;;;1.95;0.80;;;21.90;57.70;;;;;;5058690;28;20492;-62
2022/07/05 08:04:26;;;;;;;1.80;0.85;;;21.90;57.30;;;;;;5057491;28;20107;-62
2022/07/05 08:06:51;;;;;;;1.75;1.27;;;21.90;57.40;;;;;;5056506;28;20041;-62
2022/07/05 08:09:17;;;;;;;0.50;0.50;;;21.90;57.10;;;;;;5066564;28;20115;-62
2022/07/05 08:11:44;;;;;;;1.10;0.90;;;22.00;57.20;;;;;;5063079;28;20628;-63
2022/07/05 08:14:09;;;;;;;0.60;0.60;;;22.10;56.20;;;;;;5036996;28;20029;-63
2022/07/05 08:16:35;;;;;;;3.22;0.80;;;22.10;55.90;;;;;;5064892;28;20050;-62
2022/07/05 08:21:47;;;;;;;1.00;0.63;;;22.20;56.00;;;;;;5064691;28;20089;-62
2022/07/05 08:24:13;;;;;;;0.70;0.60;;;22.30;55.70;;;;;;5058666;28;20016;-69
2022/07/05 08:26:40;;;;;;;0.77;0.70;;;22.30;55.00;;;;;;5068320;28;20451;-69
2022/07/05 08:29:08;;;;;;;0.93;0.75;;;22.40;54.60;;;;;;5061973;28;20033;-69
2022/07/05 08:31:37;;;;;;;0.40;0.40;;;22.40;54.10;;;;;;5059978;28;20409;-69
2022/07/05 08:34:03;;;;;;;0.30;0.30;;;22.40;54.10;;;;;;5064426;28;20560;-70
2022/07/05 08:36:29;;;;;;;1.05;0.80;;;22.50;53.90;;;;;;5060077;28;20055;-69
2022/07/05 08:38:55;;;;;;;0.60;0.60;;;22.40;53.00;;;;;;5063774;28;20020;-62
2022/07/05 08:41:21;;;;;;;0.60;0.60;;;22.40;52.90;;;;;;5063996;28;20078;-62
2022/07/05 08:43:48;;;;;;;0.70;0.70;;;22.40;53.40;;;;;;5062713;28;20399;-62
2022/07/05 08:46:16;;;;;;;0.98;0.80;;;22.40;53.40;;;;;;5066455;28;20050;-63
2022/07/05 08:48:43;;;;;;;0.70;0.70;;;22.40;53.40;;;;;;5067270;28;20060;-63
2022/07/05 08:51:17;;;;;;;0.88;0.88;;;22.40;53.80;;;;;;5062472;28;20024;-63
2022/07/05 08:53:44;;;;;;;1.25;1.15;;;22.50;54.30;;;;;;5065711;28;20147;-62
2022/07/05 08:56:12;;;;;;;0.80;0.80;;;22.50;54.80;;;;;;5067987;28;20032;-63
2022/07/05 08:58:38;;;;;;;0.82;0.77;;;22.50;55.00;;;;;;5069442;28;20052;-63
2022/07/05 09:01:05;;;;;;;0.75;0.75;;;22.60;55.00;;;;;;5067821;28;20021;-63
2022/07/05 09:03:51;;;;;;;0.65;0.65;;;22.70;54.90;;;;;;5086486;28;20111;-64
2022/07/05 09:06:24;;;;;;;0.60;0.60;;;22.90;54.70;;;;;;5070572;28;20020;-64
2022/07/05 09:08:54;;;;;;;1.88;1.40;;;23.00;54.30;;;;;;5071588;28;20397;-63
2022/07/05 09:11:23;;;;;;;1.00;0.75;;;23.10;52.20;;;;;;5070091;28;20013;-69
2022/07/05 09:13:50;;;;;;;1.88;1.20;;;23.10;52.70;;;;;;5071385;28;20060;-69
2022/07/05 09:16:17;;;;;;;0.65;0.55;;;23.00;52.80;;;;;;5070841;28;20024;-69
2022/07/05 09:18:51;;;;;;;2.67;0.98;;;23.00;52.80;;;;;;5071089;28;20067;-70
2022/07/05 09:21:20;;;;;;;1.83;0.90;;;23.20;53.00;;;;;;5069266;28;20024;-69
2022/07/05 09:23:57;;;;;;;1.10;1.00;;;23.30;51.80;;;;;;5071175;28;20020;-69
2022/07/05 09:26:31;;;;;;;0.70;0.70;;;23.40;51.70;;;;;;5065834;28;20063;-69
2022/07/05 09:28:57;;;;;;;0.95;0.95;;;23.30;51.10;;;;;;5070258;28;20044;-63
2022/07/05 09:31:32;;;;;;;0.70;0.70;;;23.30;51.20;;;;;;5067960;28;20040;-63
2022/07/05 09:34:09;;;;;;;0.82;0.63;;;23.30;51.80;;;;;;5059864;28;20055;-64
2022/07/05 09:36:48;;;;;;;0.60;0.60;;;23.30;51.70;;;;;;5059821;28;20028;-64
2022/07/05 09:39:13;;;;;;;1.92;0.70;;;23.40;51.80;;;;;;5054084;28;20368;-64
2022/07/05 09:41:39;;;;;;;1.50;0.80;;;23.60;51.40;;;;;;5058869;28;20033;-63
2022/07/05 09:44:05;;;;;;;0.82;0.82;;;23.60;50.90;;;;;;5064619;28;20384;-69
2022/07/05 09:46:31;;;;;;;0.63;0.60;;;23.50;49.40;;;;;;5060857;28;20027;-70
2022/07/05 09:48:57;;;;;;;0.77;0.77;;;23.50;49.70;;;;;;5057283;28;20111;-70
2022/07/05 09:51:24;;;;;;;1.25;0.85;;;23.30;49.60;;;;;;5063278;28;20107;-70
2022/07/05 09:53:52;;;;;;;0.60;0.60;;;23.20;49.80;;;;;;5060507;28;20470;-69
2022/07/05 09:56:18;;;;;;;2.00;0.70;;;23.00;50.30;;;;;;5066356;28;20029;-69
2022/07/05 09:58:45;;;;;;;2.35;0.98;;;22.80;50.50;;;;;;5066371;28;20143;-69
2022/07/05 10:01:31;;;;;;;1.13;0.75;;;22.60;51.00;;;;;;5069124;28;20027;-69
2022/07/05 10:04:01;;;;;;;0.75;0.75;;;22.50;51.90;;;;;;5046547;28;20028;-69
2022/07/05 10:06:28;;;;;;;1.02;1.00;;;22.40;52.30;;;;;;5066680;28;20027;-69
2022/07/05 10:08:54;;;;;;;2.90;2.15;;;22.40;53.30;;;;;;5079903;28;20055;-69
2022/07/05 10:11:22;;;;;;;3.20;1.63;;;22.40;53.20;;;;;;5064110;28;20024;-70
2022/07/05 10:13:50;;;;;;;2.08;1.17;;;22.40;54.00;;;;;;5064121;28;20035;-63
2022/07/05 10:16:17;;;;;;;5.22;2.05;;;22.50;54.20;;;;;;5065810;28;20035;-69
2022/07/05 10:18:44;;;;;;;2.55;1.63;;;22.70;54.30;;;;;;5066150;28;20479;-69
2022/07/05 10:21:14;;;;;;;1.85;1.20;;;22.90;54.30;;;;;;5063120;28;20043;-70
2022/07/05 10:23:48;;;;;;;1.67;1.38;;;23.30;53.90;;;;;;5070264;28;20594;-70
2022/07/05 10:26:15;;;;;;;1.00;0.90;;;23.60;53.20;;;;;;5068088;28;20458;-70
2022/07/05 10:28:46;;;;;;;1.30;0.95;;;23.70;52.80;;;;;;5071124;28;20047;-64
2022/07/05 10:31:15;;;;;;;1.63;1.08;;;24.00;52.60;;;;;;5073297;28;20032;-63
2022/07/05 10:33:41;;;;;;;0.95;0.90;;;24.40;51.70;;;;;;5073074;28;20446;-63
2022/07/05 10:36:10;;;;;;;1.67;1.10;;;24.40;50.50;;;;;;5065771;28;20482;-70
2022/07/05 10:38:38;;;;;;;1.17;1.08;;;24.50;50.80;;;;;;5063163;28;20031;-64
2022/07/05 10:41:07;;;;;;;1.60;0.90;;;24.70;50.70;;;;;;5066565;28;20040;-65
2022/07/05 10:43:34;;;;;;;0.90;0.90;;;24.90;50.00;;;;;;5061837;28;20467;-65
2022/07/05 10:46:06;;;;;;;1.85;1.38;;;25.00;49.80;;;;;;5057914;28;20021;-64
2022/07/05 10:48:33;;;;;;;2.05;1.38;;;25.00;49.50;;;;;;5063587;28;20130;-65
2022/07/05 10:51:16;;;;;;;1.05;1.05;;;25.10;48.20;;;;;;5056661;28;20542;-71
2022/07/05 10:53:41;;;;;;;2.55;0.68;;;25.10;48.80;;;;;;5059205;28;20069;-72
2022/07/05 10:56:07;;;;;;;2.55;1.35;;;25.00;49.10;;;;;;5056639;28;20444;-72
2022/07/05 10:58:40;;;;;;;0.70;0.70;;;24.90;48.90;;;;;;5060812;28;20186;-72
2022/07/05 11:01:32;;;;;;;4.00;0.80;;;24.70;49.30;;;;;;5065279;28;20051;-71
2022/07/05 11:04:00;;;;;;;0.80;0.80;;;24.60;48.80;;;;;;5064009;28;20098;-72
2022/07/05 11:06:28;;;;;;;0.80;0.80;;;24.50;48.70;;;;;;5062260;28;20040;-65
2022/07/05 11:08:59;;;;;;;0.63;0.63;;;24.70;49.10;;;;;;5059510;28;20078;-65
2022/07/05 11:11:27;;;;;;;2.22;0.95;;;25.10;49.00;;;;;;5064708;28;20032;-65
2022/07/05 11:13:54;;;;;;;0.57;0.57;;;25.50;48.80;;;;;;5065361;28;20650;-65
2022/07/05 11:16:26;;;;;;;2.35;0.88;;;25.90;48.50;;;;;;5071421;28;20112;-65
2022/07/05 11:19:10;;;;;;;1.00;0.85;;;26.20;47.90;;;;;;5062632;28;20496;-65
2022/07/05 11:21:38;;;;;;;0.50;0.50;;;26.40;46.90;;;;;;5058696;28;20058;-65
2022/07/05 11:24:26;;;;;;;1.75;0.50;;;26.20;46.00;;;;;;5066366;28;20479;-65
2022/07/05 11:26:53;;;;;;;1.30;0.50;;;25.90;46.40;;;;;;5067048;28;20036;-65
2022/07/05 11:29:44;;;;;;;0.30;0.30;;;25.60;46.50;;;;;;5057152;28;20924;-65
2022/07/05 11:32:18;;;;;;;0.40;0.40;;;25.30;46.90;;;;;;5056605;28;20036;-64
2022/07/05 11:34:46;;;;;;;0.47;0.47;;;25.10;47.00;;;;;;5062112;28;20395;-64
2022/07/05 11:37:24;;;;;;;0.50;0.50;;;24.90;47.40;;;;;;5063799;28;20035;-70
2022/07/05 11:40:11;;;;;;;1.00;0.85;;;24.70;47.30;;;;;;5064707;28;20037;-72
2022/07/05 11:42:39;;;;;;;0.43;0.43;;;24.50;47.30;;;;;;5062477;28;20016;-64
2022/07/05 11:45:14;;;;;;;0.38;0.38;;;24.30;47.60;;;;;;5068412;28;20036;-65
2022/07/05 11:47:41;;;;;;;0.50;0.50;;;24.20;48.20;;;;;;5066111;28;20037;-64
2022/07/05 11:50:08;;;;;;;0.38;0.38;;;24.20;47.70;;;;;;5063143;28;20056;-64
2022/07/05 11:52:36;;;;;;;0.60;0.60;;;24.20;47.50;;;;;;5064777;28;20047;-65
2022/07/05 11:55:07;;;;;;;0.50;0.43;;;24.20;47.20;;;;;;5053027;28;20040;-65
2022/07/05 11:57:33;;;;;;;0.52;0.40;;;24.20;47.20;;;;;;5065129;28;20044;-72
2022/07/05 12:00:01;;;;;;;0.40;0.40;;;24.30;47.10;;;;;;5072937;28;20052;-65
2022/07/05 12:02:26;;;;;;;0.40;0.40;;;24.60;47.30;;;;;;5071596;28;20028;-65
2022/07/05 12:04:57;;;;;;;0.50;0.50;;;25.10;46.30;;;;;;5071952;28;20037;-65
2022/07/05 12:07:26;;;;;;;0.68;0.68;;;25.60;45.80;;;;;;5066720;28;20494;-64
2022/07/05 12:12:42;;;;;;;0.40;0.40;;;25.90;45.70;;;;;;5056018;28;20064;-72
2022/07/05 12:15:22;;;;;;;0.50;0.50;;;26.20;44.50;;;;;;5068053;28;20037;-65
2022/07/05 12:17:49;;;;;;;0.40;0.40;;;26.40;43.10;;;;;;5058063;28;20073;-65
2022/07/05 12:20:22;;;;;;;0.55;0.40;;;26.30;42.80;;;;;;5065857;28;20601;-65
2022/07/05 12:22:49;;;;;;;0.47;0.35;;;26.30;43.10;;;;;;5065441;28;20662;-64
2022/07/05 12:25:19;;;;;;;0.63;0.63;;;26.30;43.30;;;;;;5064395;28;20111;-64
2022/07/05 12:27:47;;;;;;;1.55;0.85;;;26.40;43.50;;;;;;5062884;28;20033;-64
2022/07/05 12:30:14;;;;;;;0.68;0.68;;;26.50;43.20;;;;;;5064364;28;20032;-65
2022/07/05 12:33:04;;;;;;;0.50;0.50;;;26.40;43.70;;;;;;5059290;28;20047;-64
2022/07/05 12:35:34;;;;;;;0.77;0.40;;;26.10;43.60;;;;;;5092169;28;20106;-72
2022/07/05 12:38:04;;;;;;;0.45;0.45;;;25.80;43.60;;;;;;5057227;28;20456;-72
2022/07/05 12:40:30;;;;;;;0.40;0.40;;;25.80;44.20;;;;;;5061667;28;20028;-72
2022/07/05 12:43:10;;;;;;;0.88;0.60;;;26.10;44.10;;;;;;5055653;28;20143;-71
2022/07/05 12:45:44;;;;;;;0.40;0.40;;;26.60;43.00;;;;;;5054646;28;20078;-72
2022/07/05 12:48:11;;;;;;;0.40;0.40;;;26.70;42.40;;;;;;5063051;28;20048;-65
2022/07/05 12:50:52;;;;;;;1.48;0.45;;;26.90;42.00;;;;;;5066849;28;20106;-64
2022/07/05 12:58:57;;;;;;;0.40;0.40;;;27.20;42.50;;;;;;5066568;28;20043;-70
2022/07/05 13:01:31;;;;;;;0.40;0.40;;;26.90;42.40;;;;;;5066995;28;20097;-74
2022/07/05 13:04:14;;;;;;;0.40;0.40;;;26.50;42.60;;;;;;5087814;28;20021;-74